createdAt,value
2022-09-15T00:01:52.135Z,14.09
2022-09-15T00:06:55.511Z,14.08
2022-09-15T00:11:58.930Z,14.08
2022-09-15T00:17:02.193Z,14.05
2022-09-15T00:22:05.648Z,14.03
2022-09-15T00:27:09.163Z,14.00
2022-09-15T00:32:12.374Z,13.95
2022-09-15T00:37:15.686Z,13.91
2022-09-15T00:42:22.066Z,13.86
2022-09-15T00:47:29.772Z,13.82
2022-09-15T00:52:44.559Z,13.82
2022-09-15T00:58:00.030Z,13.82
2022-09-15T01:03:04.735Z,13.79
2022-09-15T01:08:36.885Z,13.79
2022-09-15T01:13:40.200Z,13.76
2022-09-15T01:18:55.387Z,13.76
2022-09-15T01:24:20.405Z,13.73
2022-09-15T01:29:23.613Z,13.72
2022-09-15T01:34:30.713Z,13.68
2022-09-15T01:39:40.682Z,13.69
2022-09-15T01:44:49.830Z,13.70
2022-09-15T01:49:57.340Z,13.69
2022-09-15T01:55:05.871Z,13.68
2022-09-15T02:00:09.897Z,13.68
2022-09-15T02:05:16.845Z,13.69
2022-09-15T02:10:37.408Z,13.70
2022-09-15T02:15:43.971Z,13.70
2022-09-15T02:20:53.758Z,13.70
2022-09-15T02:26:04.965Z,13.70
2022-09-15T02:31:18.417Z,13.68
2022-09-15T02:36:22.736Z,13.67
2022-09-15T02:41:27.033Z,13.66
2022-09-15T02:46:30.593Z,13.63
2022-09-15T02:51:34.309Z,13.60
2022-09-15T02:56:38.135Z,13.57
2022-09-15T03:01:41.477Z,13.57
2022-09-15T03:06:44.793Z,13.54
2022-09-15T03:11:47.962Z,13.51
2022-09-15T03:16:51.270Z,13.48
2022-09-15T03:21:54.686Z,13.46
2022-09-15T03:26:57.893Z,13.44
2022-09-15T03:32:01.511Z,13.42
2022-09-15T03:37:05.642Z,13.42
2022-09-15T03:42:09.055Z,13.38
2022-09-15T03:47:12.673Z,13.37
2022-09-15T03:52:15.879Z,13.37
2022-09-15T03:57:19.088Z,13.34
2022-09-15T04:02:22.445Z,13.32
2022-09-15T04:07:26.149Z,13.23
2022-09-15T04:12:32.312Z,13.10
2022-09-15T04:17:36.018Z,12.97
2022-09-15T04:22:39.532Z,12.82
2022-09-15T04:27:43.049Z,12.66
2022-09-15T04:32:46.261Z,12.50
2022-09-15T04:37:49.567Z,12.39
2022-09-15T04:42:53.187Z,12.33
2022-09-15T04:47:56.809Z,12.32
2022-09-15T04:53:00.115Z,12.35
2022-09-15T04:58:04.143Z,12.41
2022-09-15T05:03:07.452Z,12.52
2022-09-15T05:08:11.175Z,12.64
2022-09-15T05:13:14.895Z,12.77
2022-09-15T05:18:18.307Z,12.91
2022-09-15T05:23:21.514Z,13.05
2022-09-15T05:28:25.337Z,13.18
2022-09-15T05:33:28.855Z,13.33
2022-09-15T05:38:32.779Z,13.51
2022-09-15T05:43:37.486Z,13.62
2022-09-15T05:48:40.742Z,13.60
2022-09-15T05:53:44.042Z,13.49
2022-09-15T05:58:49.419Z,13.40
2022-09-15T06:03:53.222Z,13.45
2022-09-15T06:08:58.783Z,13.58
2022-09-15T06:14:03.969Z,13.73
2022-09-15T06:19:07.693Z,14.00
2022-09-15T06:24:12.851Z,14.30
2022-09-15T06:29:16.125Z,14.52
2022-09-15T06:34:19.333Z,14.66
2022-09-15T06:39:22.553Z,14.75
2022-09-15T06:44:25.753Z,14.95
2022-09-15T06:49:29.372Z,15.11
2022-09-15T06:54:32.781Z,15.13
2022-09-15T06:59:36.092Z,15.13
2022-09-15T07:04:44.525Z,15.25
2022-09-15T07:09:49.139Z,15.36
2022-09-15T07:14:52.577Z,15.42
2022-09-15T07:19:55.995Z,15.40
2022-09-15T07:24:59.303Z,15.44
2022-09-15T07:30:04.053Z,15.52
2022-09-15T07:35:08.074Z,15.63
2022-09-15T07:40:12.310Z,15.76
2022-09-15T07:45:15.820Z,15.91
2022-09-15T07:50:19.029Z,16.03
2022-09-15T07:55:22.446Z,16.18
2022-09-15T08:00:26.411Z,16.32
2022-09-15T08:05:29.578Z,16.46
2022-09-15T08:10:33.091Z,16.63
2022-09-15T08:15:39.267Z,16.83
2022-09-15T08:20:43.604Z,17.14
2022-09-15T08:25:47.938Z,17.77
2022-09-15T08:30:57.997Z,18.36
2022-09-15T08:36:06.951Z,18.82
2022-09-15T08:41:33.302Z,19.05
2022-09-15T08:46:45.592Z,19.21
2022-09-15T08:51:51.190Z,19.16
2022-09-15T08:56:56.790Z,19.05
2022-09-15T09:02:37.518Z,18.91
2022-09-15T09:08:07.988Z,19.32
2022-09-15T09:13:50.313Z,19.73
2022-09-15T09:19:08.675Z,20.02
2022-09-15T09:24:11.781Z,20.08
2022-09-15T09:29:31.374Z,19.91
2022-09-15T09:34:44.616Z,20.03
2022-09-15T09:39:48.386Z,20.22
2022-09-15T09:44:51.752Z,20.19
2022-09-15T09:49:54.959Z,19.92
2022-09-15T09:55:02.575Z,19.84
2022-09-15T10:00:06.600Z,19.67
2022-09-15T10:05:09.880Z,19.22
2022-09-15T10:10:28.889Z,19.03
2022-09-15T10:15:35.449Z,19.09
2022-09-15T10:20:51.442Z,19.26
2022-09-15T10:26:32.475Z,19.05
2022-09-15T10:31:36.029Z,18.83
2022-09-15T10:36:39.305Z,18.75
2022-09-15T10:42:17.643Z,18.71
2022-09-15T10:47:32.618Z,18.72
2022-09-15T10:52:50.780Z,18.73
2022-09-15T10:58:26.446Z,18.84
2022-09-15T11:03:51.159Z,19.32
2022-09-15T11:09:13.313Z,19.43
2022-09-15T11:14:31.777Z,19.32
2022-09-15T11:19:43.385Z,19.12
2022-09-15T11:25:13.124Z,19.14
2022-09-15T11:30:20.726Z,19.53
2022-09-15T11:35:48.201Z,19.56
2022-09-15T11:41:04.113Z,19.44
2022-09-15T11:46:13.812Z,19.62
2022-09-15T11:51:21.891Z,19.77
2022-09-15T11:56:32.472Z,20.06
2022-09-15T12:01:42.068Z,20.53
2022-09-15T12:07:17.493Z,20.67
2022-09-15T12:12:22.647Z,20.64
2022-09-15T12:17:37.837Z,20.50
2022-09-15T12:22:59.785Z,20.52
2022-09-15T12:28:40.368Z,20.53
2022-09-15T12:33:43.578Z,20.50
2022-09-15T12:38:49.792Z,20.75
2022-09-15T12:43:59.421Z,20.84
2022-09-15T12:49:03.995Z,20.96
2022-09-15T12:54:09.108Z,20.84
2022-09-15T12:59:15.317Z,20.97
2022-09-15T13:04:25.150Z,21.08
2022-09-15T13:09:29.081Z,21.28
2022-09-15T13:14:40.290Z,21.48
2022-09-15T13:19:47.604Z,21.41
2022-09-15T13:25:04.198Z,21.48
2022-09-15T13:30:26.351Z,21.26
2022-09-15T13:35:32.426Z,21.09
2022-09-15T13:40:38.297Z,21.46
2022-09-15T13:45:54.022Z,21.54
2022-09-15T13:51:03.554Z,21.47
2022-09-15T13:56:13.624Z,21.31
2022-09-15T14:01:21.678Z,21.42
2022-09-15T14:06:41.655Z,21.23
2022-09-15T14:11:49.076Z,21.01
2022-09-15T14:16:52.918Z,20.92
2022-09-15T14:21:58.572Z,20.54
2022-09-15T14:27:10.315Z,19.93
2022-09-15T14:32:16.632Z,19.04
2022-09-15T14:37:28.616Z,18.36
2022-09-15T14:42:40.458Z,17.89
2022-09-15T14:47:43.983Z,17.74
2022-09-15T14:52:53.533Z,17.74
2022-09-15T14:58:13.842Z,18.65
2022-09-15T15:03:43.164Z,18.43
2022-09-15T15:08:49.544Z,18.03
2022-09-15T15:13:53.636Z,17.60
2022-09-15T15:18:57.803Z,17.14
2022-09-15T15:24:09.848Z,17.12
2022-09-15T15:29:43.336Z,17.24
2022-09-15T15:34:58.833Z,17.38
2022-09-15T15:40:07.093Z,17.26
2022-09-15T15:45:13.751Z,16.99
2022-09-15T15:50:21.041Z,16.61
2022-09-15T15:55:31.225Z,16.34
2022-09-15T16:00:44.931Z,16.16
2022-09-15T16:05:58.332Z,16.00
2022-09-15T16:11:03.346Z,15.90
2022-09-15T16:16:19.827Z,15.76
2022-09-15T16:21:37.205Z,15.60
2022-09-15T16:26:40.856Z,15.46
2022-09-15T16:31:44.494Z,15.37
2022-09-15T16:36:47.782Z,15.31
2022-09-15T16:41:51.432Z,15.52
2022-09-15T16:46:54.655Z,17.14
2022-09-15T16:51:57.777Z,17.43
2022-09-15T16:57:01.230Z,16.56
2022-09-15T17:02:12.680Z,15.92
2022-09-15T17:07:16.046Z,15.41
2022-09-15T17:12:20.761Z,15.08
2022-09-15T17:17:25.134Z,14.84
2022-09-15T17:22:28.436Z,14.69
2022-09-15T17:27:31.644Z,14.58
2022-09-15T17:32:35.087Z,14.47
2022-09-15T17:37:38.367Z,14.34
2022-09-15T17:42:42.726Z,14.18
2022-09-15T17:47:46.950Z,14.00
2022-09-15T17:52:50.756Z,13.81
2022-09-15T17:57:55.376Z,13.60
2022-09-15T18:03:02.239Z,13.44
2022-09-15T18:08:06.116Z,13.28
2022-09-15T18:13:23.970Z,13.14
2022-09-15T18:18:28.610Z,12.99
2022-09-15T18:23:31.819Z,12.88
2022-09-15T18:28:35.026Z,12.73
2022-09-15T18:33:38.131Z,12.59
2022-09-15T18:38:42.075Z,12.47
2022-09-15T18:43:50.360Z,12.36
2022-09-15T18:48:56.078Z,12.23
2022-09-15T18:53:59.465Z,12.09
2022-09-15T18:59:02.783Z,11.96
2022-09-15T19:04:05.985Z,11.84
2022-09-15T19:09:09.297Z,11.73
2022-09-15T19:14:12.503Z,11.61
2022-09-15T19:19:15.711Z,11.52
2022-09-15T19:24:20.661Z,11.44
2022-09-15T19:29:30.729Z,11.34
2022-09-15T19:34:35.269Z,11.27
2022-09-15T19:39:39.501Z,11.17
2022-09-15T19:44:42.613Z,11.13
2022-09-15T19:49:45.918Z,11.06
2022-09-15T19:54:49.127Z,11.02
2022-09-15T19:59:52.397Z,10.96
2022-09-15T20:04:56.567Z,10.92
2022-09-15T20:09:59.678Z,10.88
2022-09-15T20:15:02.984Z,10.86
2022-09-15T20:20:06.732Z,10.86
2022-09-15T20:25:09.926Z,10.82
2022-09-15T20:30:14.555Z,10.81
2022-09-15T20:35:17.866Z,10.80
2022-09-15T20:40:21.123Z,10.76
2022-09-15T20:45:24.592Z,10.73
2022-09-15T20:50:27.695Z,10.68
2022-09-15T20:55:30.804Z,10.65
2022-09-15T21:00:34.113Z,10.62
2022-09-15T21:05:37.427Z,10.57
2022-09-15T21:10:45.782Z,10.51
2022-09-15T21:16:00.390Z,10.44
2022-09-15T21:21:09.706Z,10.38
2022-09-15T21:26:15.486Z,10.31
2022-09-15T21:31:30.392Z,10.26
2022-09-15T21:36:33.951Z,10.20
2022-09-15T21:41:37.256Z,10.16
2022-09-15T21:46:40.363Z,10.09
2022-09-15T21:51:43.572Z,10.04
2022-09-15T21:56:47.086Z,9.99
2022-09-15T22:01:50.328Z,9.94
2022-09-15T22:06:54.323Z,9.90
2022-09-15T22:11:57.531Z,9.88
2022-09-15T22:17:00.844Z,9.90
2022-09-15T22:22:04.255Z,9.94
2022-09-15T22:27:07.462Z,10.01
2022-09-15T22:32:10.673Z,10.09
2022-09-15T22:37:13.880Z,10.17
2022-09-15T22:42:17.191Z,10.29
2022-09-15T22:47:20.296Z,10.45
2022-09-15T22:52:23.505Z,10.62
2022-09-15T22:57:26.713Z,10.79
2022-09-15T23:02:29.820Z,10.86
2022-09-15T23:07:34.058Z,10.88
2022-09-15T23:12:37.055Z,10.89
2022-09-15T23:17:41.389Z,10.87
2022-09-15T23:22:44.598Z,10.82
2022-09-15T23:27:47.910Z,10.73
2022-09-15T23:32:51.227Z,10.62
2022-09-15T23:37:54.529Z,10.52
2022-09-15T23:42:57.739Z,10.41
2022-09-15T23:48:01.053Z,10.29
2022-09-15T23:53:04.669Z,10.22
2022-09-15T23:58:08.083Z,10.17
